Time;durP1;ratioP1;P1;durP2;ratioP2;P2;SDS_P1;SDS_P2;PMS_P1;PMS_P2;Temp;Humidity;BMP_temperature;BMP_pressure;BME280_temperature;BME280_humidity;BME280_pressure;Samples;Min_cycle;Max_cycle;Signal;HPM_P1;HPM_P2
2022/06/01 00:00:51;;;;;;;;;;;12.00;88.60;;;;;;4989924;28;19914;-78
2022/06/01 00:03:16;;;;;;;;;;;12.00;88.00;;;;;;4969698;28;20001;-77
2022/06/01 00:05:42;;;;;;;;;;;11.90;88.00;;;;;;4979975;28;20329;-77
2022/06/01 00:08:08;;;;;;;;;;;11.80;88.10;;;;;;4987956;28;19917;-77
2022/06/01 00:10:33;;;;;;;;;;;11.70;88.10;;;;;;4986665;28;19942;-77
2022/06/01 00:12:59;;;;;;;;;;;11.70;88.40;;;;;;4987848;28;20292;-77
2022/06/01 00:15:25;;;;;;;;;;;11.70;88.40;;;;;;4985040;28;19914;-77
2022/06/01 00:17:51;;;;;;;;;;;11.70;88.60;;;;;;4986139;28;19910;-77
2022/06/01 00:20:16;;;;;;;;;;;11.60;88.60;;;;;;4984877;28;20008;-77
2022/06/01 00:22:42;;;;;;;;;;;11.60;88.60;;;;;;4988989;28;19989;-78
2022/06/01 00:25:08;;;;;;;;;;;11.60;88.50;;;;;;4987579;28;19966;-77
2022/06/01 00:27:34;;;;;;;;;;;11.60;87.80;;;;;;4988717;28;19914;-77
2022/06/01 00:30:00;;;;;;;;;;;11.80;87.80;;;;;;4985509;28;20404;-77
2022/06/01 00:32:25;;;;;;;;;;;11.80;87.40;;;;;;4985004;28;19921;-76
2022/06/01 00:34:51;;;;;;;;;;;11.80;87.90;;;;;;4967312;28;19918;-77
2022/06/01 00:37:17;;;;;;;;;;;11.80;87.50;;;;;;4988658;28;19914;-77
2022/06/01 00:39:44;;;;;;;;;;;11.80;87.60;;;;;;4965310;28;20238;-78
2022/06/01 00:42:09;;;;;;;;;;;11.70;87.60;;;;;;4987646;28;20019;-77
2022/06/01 00:44:35;;;;;;;;;;;11.70;87.40;;;;;;4991333;28;20396;-77
2022/06/01 00:47:00;;;;;;;;;;;11.70;87.30;;;;;;4992515;28;20427;-77
2022/06/01 00:49:26;;;;;;;;;;;11.70;87.00;;;;;;4988530;28;19922;-76
2022/06/01 00:51:52;;;;;;;;;;;11.70;87.50;;;;;;4988836;28;19936;-76
2022/06/01 00:54:18;;;;;;;;;;;11.70;87.40;;;;;;4991168;28;19922;-77
2022/06/01 00:56:48;;;;;;;;;;;11.80;87.40;;;;;;4994004;28;19929;-76
2022/06/01 00:59:17;;;;;;;;;;;11.80;87.60;;;;;;4981829;28;19914;-77
2022/06/01 01:01:44;;;;;;;;;;;11.80;87.60;;;;;;4989512;28;19929;-78
2022/06/01 01:04:10;;;;;;;;;;;11.80;87.60;;;;;;4990027;28;20349;-77
2022/06/01 01:06:37;;;;;;;;;;;11.70;86.90;;;;;;4987505;28;19932;-78
2022/06/01 01:09:04;;;;;;;;;;;11.70;87.00;;;;;;4990289;28;20238;-77
2022/06/01 01:11:34;;;;;;;;;;;11.70;87.20;;;;;;4993141;28;19914;-77
2022/06/01 01:14:00;;;;;;;;;;;11.70;87.00;;;;;;4978020;28;20016;-77
2022/06/01 01:16:26;;;;;;;;;;;11.60;86.50;;;;;;4992154;28;20000;-77
2022/06/01 01:18:52;;;;;;;;;;;11.60;86.80;;;;;;4989990;28;19918;-77
2022/06/01 01:21:17;;;;;;;;;;;11.50;86.80;;;;;;4975689;28;19918;-77
2022/06/01 01:24:18;;;;;;;;;;;11.40;86.70;;;;;;4991915;28;20004;-77
2022/06/01 01:26:48;;;;;;;;;;;11.30;86.70;;;;;;4931243;29;19954;-77
2022/06/01 01:29:14;;;;;;;;;;;11.30;86.90;;;;;;4978291;28;20000;-76
2022/06/01 01:31:40;;;;;;;;;;;11.30;87.40;;;;;;4996906;28;19922;-77
2022/06/01 01:34:06;;;;;;;;;;;11.20;87.40;;;;;;4988167;28;19918;-76
2022/06/01 01:36:34;;;;;;;;;;;11.20;87.20;;;;;;4990605;28;19975;-77
2022/06/01 01:39:03;;;;;;;;;;;11.20;87.20;;;;;;4991595;28;20562;-76
2022/06/01 01:41:45;;;;;;;;;;;11.20;87.30;;;;;;4982171;28;19960;-77
2022/06/01 01:44:10;;;;;;;;;;;11.10;87.10;;;;;;4993807;28;20107;-77
2022/06/01 01:46:36;;;;;;;;;;;11.10;87.30;;;;;;4998148;28;20101;-77
2022/06/01 01:49:02;;;;;;;;;;;11.00;87.50;;;;;;4989188;28;20005;-76
2022/06/01 01:51:29;;;;;;;;;;;11.00;87.50;;;;;;4989704;28;19920;-77
2022/06/01 01:53:55;;;;;;;;;;;11.10;87.70;;;;;;4989925;28;19914;-77
2022/06/01 01:56:32;;;;;;;;;;;11.00;87.80;;;;;;4971923;28;19925;-77
2022/06/01 01:59:05;;;;;;;;;;;11.00;87.70;;;;;;4989941;28;19930;-77
2022/06/01 02:01:34;;;;;;;;;;;11.00;87.60;;;;;;4988236;28;19920;-76
2022/06/01 02:06:03;;;;;;;;;;;11.00;87.70;;;;;;4987465;28;19972;-76
2022/06/01 02:06:53;;;;;;;;;;;11.00;87.70;;;;;;4989127;28;19925;-77
2022/06/01 02:09:19;;;;;;;;;;;11.00;87.70;;;;;;4991143;28;19924;-77
2022/06/01 02:14:42;;;;;;;;;;;10.90;87.80;;;;;;4994498;28;19921;-76
2022/06/01 02:17:10;;;;;;;;;;;10.90;87.70;;;;;;4973413;28;19969;-77
2022/06/01 02:19:50;;;;;;;;;;;10.80;87.70;;;;;;4986881;28;20393;-76
2022/06/01 02:22:16;;;;;;;;;;;10.80;88.00;;;;;;4985595;28;20369;-76
2022/06/01 02:24:42;;;;;;;;;;;10.80;88.00;;;;;;4968211;28;19914;-77
2022/06/01 02:27:07;;;;;;;;;;;10.70;87.80;;;;;;4991343;28;19917;-77
2022/06/01 02:29:36;;;;;;;;;;;10.70;87.90;;;;;;4969938;28;19913;-77
2022/06/01 02:32:02;;;;;;;;;;;10.70;88.00;;;;;;4989359;28;20380;-77
2022/06/01 02:34:28;;;;;;;;;;;10.70;87.80;;;;;;4988650;28;19945;-77
2022/06/01 02:36:55;;;;;;;;;;;10.60;87.90;;;;;;4989541;28;20446;-77
2022/06/01 02:39:21;;;;;;;;;;;10.70;87.90;;;;;;4985659;28;20534;-77
2022/06/01 02:44:30;;;;;;;;;;;10.70;87.80;;;;;;4987311;28;19929;-77
2022/06/01 02:46:57;;;;;;;;;;;10.60;87.70;;;;;;4990089;28;20314;-77
2022/06/01 02:49:23;;;;;;;;;;;10.60;87.90;;;;;;4987880;28;19936;-77
2022/06/01 02:51:48;;;;;;;;;;;10.60;88.00;;;;;;4990125;28;20392;-77
2022/06/01 02:54:13;;;;;;;;;;;10.60;88.10;;;;;;4972015;28;19914;-77
2022/06/01 02:56:39;;;;;;;;;;;10.60;87.90;;;;;;4988779;28;19910;-77
2022/06/01 02:59:05;;;;;;;;;;;10.60;87.60;;;;;;4980516;28;19957;-77
2022/06/01 03:01:31;;;;;;;;;;;10.60;87.80;;;;;;4975497;28;20388;-77
2022/06/01 03:03:57;;;;;;;;;;;10.60;87.90;;;;;;4988369;28;19914;-76
2022/06/01 03:06:23;;;;;;;;;;;10.60;87.70;;;;;;4990219;28;19943;-77
2022/06/01 03:08:48;;;;;;;;;;;10.50;87.80;;;;;;4986134;28;20008;-77
2022/06/01 03:11:14;;;;;;;;;;;10.60;87.70;;;;;;4984859;28;19914;-77
2022/06/01 03:13:39;;;;;;;;;;;10.60;87.50;;;;;;4990347;28;19925;-77
2022/06/01 03:16:05;;;;;;;;;;;10.70;87.40;;;;;;4987277;28;20450;-77
2022/06/01 03:18:31;;;;;;;;;;;10.70;87.00;;;;;;4988420;28;19928;-75
2022/06/01 03:20:57;;;;;;;;;;;10.60;87.50;;;;;;4990377;28;19922;-77
2022/06/01 03:23:24;;;;;;;;;;;10.60;87.30;;;;;;4990255;28;19914;-77
2022/06/01 03:25:49;;;;;;;;;;;10.60;87.40;;;;;;4983494;28;19910;-77
2022/06/01 03:28:15;;;;;;;;;;;10.60;87.30;;;;;;4981903;28;19918;-76
2022/06/01 03:30:41;;;;;;;;;;;10.70;87.70;;;;;;4974286;28;20012;-76
2022/06/01 03:33:06;;;;;;;;;;;10.60;87.30;;;;;;4994336;28;19999;-76
2022/06/01 03:35:32;;;;;;;;;;;10.70;87.10;;;;;;4980291;28;19941;-76
2022/06/01 03:37:58;;;;;;;;;;;10.80;87.30;;;;;;4989779;28;19933;-77
2022/06/01 03:40:24;;;;;;;;;;;10.70;87.20;;;;;;4971175;28;19936;-77
2022/06/01 03:42:50;;;;;;;;;;;10.80;87.20;;;;;;4989144;28;20296;-77
2022/06/01 03:47:59;;;;;;;;;;;10.80;87.50;;;;;;4986317;28;19979;-76
2022/06/01 03:50:26;;;;;;;;;;;10.80;87.50;;;;;;4985887;28;19926;-77
2022/06/01 03:52:51;;;;;;;;;;;10.70;87.40;;;;;;4991015;28;20012;-76
2022/06/01 03:55:17;;;;;;;;;;;10.80;87.50;;;;;;4987244;28;20008;-76
2022/06/01 03:57:43;;;;;;;;;;;10.80;87.50;;;;;;4987604;28;19921;-77
2022/06/01 04:00:10;;;;;;;;;;;10.80;87.80;;;;;;4988212;28;20004;-77
2022/06/01 04:02:37;;;;;;;;;;;10.70;87.40;;;;;;4986857;28;20082;-77
2022/06/01 04:05:03;;;;;;;;;;;10.70;87.50;;;;;;4988428;28;19913;-76
2022/06/01 04:07:28;;;;;;;;;;;10.60;87.60;;;;;;4983665;28;20556;-76
2022/06/01 04:09:54;;;;;;;;;;;10.60;87.80;;;;;;4987610;28;19920;-77
2022/06/01 04:12:19;;;;;;;;;;;10.80;87.50;;;;;;4989881;28;19977;-78
2022/06/01 04:14:45;;;;;;;;;;;10.70;87.40;;;;;;4988505;28;20004;-77
2022/06/01 04:17:10;;;;;;;;;;;10.70;87.70;;;;;;4987862;28;19926;-77
2022/06/01 04:19:35;;;;;;;;;;;10.70;87.70;;;;;;4991757;28;19956;-76
2022/06/01 04:22:01;;;;;;;;;;;10.80;87.80;;;;;;4992693;28;19972;-77
2022/06/01 04:24:28;;;;;;;;;;;10.80;87.80;;;;;;4973857;28;19921;-76
2022/06/01 04:26:54;;;;;;;;;;;10.80;87.60;;;;;;4984018;28;19937;-77
2022/06/01 04:29:20;;;;;;;;;;;10.80;88.00;;;;;;4993110;28;19914;-77
2022/06/01 04:31:46;;;;;;;;;;;10.90;87.50;;;;;;4991865;28;20423;-76
2022/06/01 04:34:12;;;;;;;;;;;10.80;88.10;;;;;;4976002;28;19964;-76
2022/06/01 04:36:38;;;;;;;;;;;10.80;87.90;;;;;;4988915;28;19925;-76
2022/06/01 04:39:04;;;;;;;;;;;10.90;87.70;;;;;;4986979;28;19922;-76
2022/06/01 04:41:31;;;;;;;;;;;10.90;87.60;;;;;;4977230;28;20305;-76
2022/06/01 04:43:56;;;;;;;;;;;11.00;87.50;;;;;;4973696;28;19920;-76
2022/06/01 04:46:22;;;;;;;;;;;11.00;87.40;;;;;;4991894;28;20388;-77
2022/06/01 04:48:47;;;;;;;;;;;11.00;87.70;;;;;;4991090;28;19914;-77
2022/06/01 04:51:14;;;;;;;;;;;11.10;87.70;;;;;;4988225;28;19953;-77
2022/06/01 04:53:41;;;;;;;;;;;11.10;87.50;;;;;;4986822;28;19917;-76
2022/06/01 04:56:06;;;;;;;;;;;11.20;87.30;;;;;;4973283;28;19922;-76
2022/06/01 04:58:32;;;;;;;;;;;11.40;86.60;;;;;;4989639;28;19913;-78
2022/06/01 05:00:57;;;;;;;;;;;11.40;86.20;;;;;;4997567;28;19956;-78
2022/06/01 05:03:23;;;;;;;;;;;11.30;86.80;;;;;;5006213;28;19975;-79
2022/06/01 05:05:48;;;;;;;;;;;11.30;86.60;;;;;;4995616;28;19914;-78
2022/06/01 05:08:14;;;;;;;;;;;11.30;86.70;;;;;;4977553;28;20585;-79
2022/06/01 05:10:40;;;;;;;;;;;11.50;86.60;;;;;;4991113;28;20603;-77
2022/06/01 05:13:05;;;;;;;;;;;11.60;86.60;;;;;;4996448;28;20361;-77
2022/06/01 05:15:31;;;;;;;;;;;11.60;86.50;;;;;;4975681;28;19938;-76
2022/06/01 05:17:56;;;;;;;;;;;11.70;86.20;;;;;;4986802;28;19914;-79
2022/06/01 05:20:22;;;;;;;;;;;11.70;86.00;;;;;;4995679;28;19913;-79
2022/06/01 05:22:47;;;;;;;;;;;11.80;85.50;;;;;;4991902;28;20337;-79
2022/06/01 05:25:13;;;;;;;;;;;11.90;85.60;;;;;;4993321;28;20347;-78
2022/06/01 05:27:38;;;;;;;;;;;12.00;85.20;;;;;;4993658;28;20222;-77
2022/06/01 05:30:05;;;;;;;;;;;12.00;85.10;;;;;;4984062;28;20285;-80
2022/06/01 05:32:30;;;;;;;;;;;12.10;85.20;;;;;;4989975;28;19922;-77
2022/06/01 05:34:57;;;;;;;;;;;12.00;84.60;;;;;;4977134;28;19917;-76
2022/06/01 05:37:22;;;;;;;;;;;12.00;85.20;;;;;;4987622;28;19920;-78
2022/06/01 05:39:48;;;;;;;;;;;12.10;85.00;;;;;;4991361;28;19909;-79
2022/06/01 05:42:13;;;;;;;;;;;12.20;84.80;;;;;;4992569;28;19914;-83
2022/06/01 05:44:39;;;;;;;;;;;12.30;84.50;;;;;;4997232;28;20407;-79
2022/06/01 05:47:04;;;;;;;;;;;12.50;84.00;;;;;;4993146;28;19918;-78
2022/06/01 05:49:31;;;;;;;;;;;12.50;83.20;;;;;;4992296;28;21333;-78
2022/06/01 05:51:57;;;;;;;;;;;12.40;82.80;;;;;;4974538;28;19993;-78
2022/06/01 05:54:22;;;;;;;;;;;12.40;83.20;;;;;;4999858;28;20258;-78
2022/06/01 05:56:48;;;;;;;;;;;12.30;83.40;;;;;;4999431;28;19952;-79
2022/06/01 05:59:14;;;;;;;;;;;12.30;83.20;;;;;;4994784;28;19964;-78
2022/06/01 06:01:40;;;;;;;;;;;12.40;83.90;;;;;;4974286;28;19921;-78
2022/06/01 06:04:05;;;;;;;;;;;12.50;83.70;;;;;;4993827;28;20487;-78
2022/06/01 06:06:31;;;;;;;;;;;12.50;83.70;;;;;;4988468;28;19991;-78
2022/06/01 06:09:00;;;;;;;;;;;12.50;82.70;;;;;;4989709;28;19918;-78
2022/06/01 06:11:27;;;;;;;;;;;12.60;83.00;;;;;;4991916;28;19918;-78
2022/06/01 06:13:52;;;;;;;;;;;12.60;83.10;;;;;;4994821;28;19909;-79
2022/06/01 06:16:18;;;;;;;;;;;12.60;82.90;;;;;;4975672;28;20314;-78
2022/06/01 06:18:44;;;;;;;;;;;12.70;83.00;;;;;;4991545;28;19922;-78
2022/06/01 06:21:10;;;;;;;;;;;12.90;82.50;;;;;;4992949;28;19925;-78
2022/06/01 06:23:35;;;;;;;;;;;12.90;82.40;;;;;;4992644;28;19914;-78
2022/06/01 06:26:01;;;;;;;;;;;12.90;81.50;;;;;;4993577;28;19910;-77
2022/06/01 06:28:27;;;;;;;;;;;13.00;81.80;;;;;;4978894;28;19987;-78
2022/06/01 06:30:53;;;;;;;;;;;13.00;81.80;;;;;;4982035;28;19954;-78
2022/06/01 06:33:18;;;;;;;;;;;13.10;81.80;;;;;;4994023;28;19914;-78
2022/06/01 06:35:44;;;;;;;;;;;13.10;81.40;;;;;;4994686;28;19924;-78
2022/06/01 06:38:10;;;;;;;;;;;13.10;80.80;;;;;;4978404;28;19953;-78
2022/06/01 06:40:36;;;;;;;;;;;13.10;80.80;;;;;;4994769;28;20140;-77
2022/06/01 06:43:02;;;;;;;;;;;13.10;80.70;;;;;;4994614;28;20076;-79
2022/06/01 06:45:27;;;;;;;;;;;13.30;80.40;;;;;;4991025;28;19980;-80
2022/06/01 06:47:53;;;;;;;;;;;13.30;80.10;;;;;;4974449;28;19918;-78
2022/06/01 06:50:19;;;;;;;;;;;13.30;79.80;;;;;;4993026;28;19918;-76
2022/06/01 06:52:45;;;;;;;;;;;13.50;79.00;;;;;;4993424;28;19914;-78
2022/06/01 06:55:10;;;;;;;;;;;13.50;79.00;;;;;;4986615;28;19910;-78
2022/06/01 06:57:36;;;;;;;;;;;13.50;78.90;;;;;;4983748;28;19914;-80
2022/06/01 07:00:03;;;;;;;;;;;13.60;78.50;;;;;;4984771;28;19921;-79
2022/06/01 07:02:36;;;;;;;;;;;13.50;77.50;;;;;;5088824;27;20304;-75
2022/06/01 07:05:02;;;;;;;;;;;13.60;78.00;;;;;;5065652;28;19919;-74
2022/06/01 07:07:28;;;;;;;;;;;13.60;77.10;;;;;;5065834;28;19951;-75
2022/06/01 07:09:53;;;;;;;;;;;13.80;77.10;;;;;;5059325;28;19940;-75
2022/06/01 07:12:19;;;;;;;;;;;13.90;76.90;;;;;;5056903;28;20362;-76
2022/06/01 07:14:44;;;;;;;;;;;13.90;75.90;;;;;;5058113;28;20495;-75
2022/06/01 07:17:10;;;;;;;;;;;13.80;75.10;;;;;;5049434;28;19917;-75
2022/06/01 07:19:35;;;;;;;;;;;13.80;74.80;;;;;;5060946;28;19939;-74
2022/06/01 07:22:01;;;;;;;;;;;13.60;75.40;;;;;;5065472;28;19977;-74
2022/06/01 07:24:26;;;;;;;;;;;13.60;76.20;;;;;;5054266;28;19919;-76
2022/06/01 07:26:52;;;;;;;;;;;13.70;76.20;;;;;;5059661;28;20062;-77
2022/06/01 07:29:21;;;;;;;;;;;14.00;75.90;;;;;;5056882;28;20280;-73
2022/06/01 07:31:47;;;;;;;;;;;14.00;74.60;;;;;;5057957;28;20223;-73
2022/06/01 07:34:13;;;;;;;;;;;14.10;73.50;;;;;;5059191;28;19979;-75
2022/06/01 07:36:39;;;;;;;;;;;13.90;73.70;;;;;;5059173;28;19921;-74
2022/06/01 07:44:36;;;;;;;;;;;14.20;73.10;;;;;;5055671;28;19919;-74
2022/06/01 07:47:01;;;;;;;;;;;14.60;71.70;;;;;;5063524;28;19912;-74
2022/06/01 07:49:27;;;;;;;;;;;15.00;70.80;;;;;;5064661;28;19917;-74
2022/06/01 07:51:55;;;;;;;;;;;15.10;69.20;;;;;;5063288;28;19913;-74
2022/06/01 07:54:21;;;;;;;;;;;15.20;68.20;;;;;;5063789;28;19916;-74
2022/06/01 07:56:46;;;;;;;;;;;15.30;69.50;;;;;;5064801;28;20281;-74
2022/06/01 07:59:12;;;;;;;;;;;15.30;69.40;;;;;;5064551;28;20004;-75
2022/06/01 08:01:38;;;;;;;;;;;15.20;68.70;;;;;;5072177;28;19942;-74
2022/06/01 08:04:04;;;;;;;;;;;15.00;69.30;;;;;;5084829;28;19909;-74
2022/06/01 08:06:30;;;;;;;;;;;15.00;70.00;;;;;;5079272;28;20312;-74
2022/06/01 08:08:55;;;;;;;;;;;15.00;70.50;;;;;;5084538;28;19948;-73
2022/06/01 08:13:06;;;;;;;;;;;15.10;70.40;;;;;;5081275;28;20383;-74
2022/06/01 08:14:07;;;;;;;;;;;15.30;70.70;;;;;;5070575;28;20273;-74
2022/06/01 08:16:33;;;;;;;;;;;15.30;67.00;;;;;;5069909;28;19912;-73
2022/06/01 08:18:58;;;;;;;;;;;15.20;67.40;;;;;;5061896;28;20313;-73
2022/06/01 08:21:23;;;;;;;;;;;15.10;69.00;;;;;;5067093;28;20027;-74
2022/06/01 08:23:49;;;;;;;;;;;15.20;65.50;;;;;;5071260;28;19930;-73
2022/06/01 08:26:14;;;;;;;;;;;15.30;66.30;;;;;;5070734;28;19913;-74
2022/06/01 08:28:40;;;;;;;;;;;15.20;66.60;;;;;;5071150;28;19919;-74
2022/06/01 08:31:05;;;;;;;;;;;15.10;66.30;;;;;;5069073;28;20004;-74
2022/06/01 08:33:31;;;;;;;;;;;15.10;67.20;;;;;;5071806;28;19909;-74
2022/06/01 08:35:56;;;;;;;;;;;15.10;66.80;;;;;;5060086;28;19951;-74
2022/06/01 08:38:22;;;;;;;;;;;15.30;65.40;;;;;;5065350;28;20009;-73
2022/06/01 08:40:53;;;;;;;;;;;15.40;66.20;;;;;;5065796;28;19931;-74
2022/06/01 08:43:21;;;;;;;;;;;15.40;65.60;;;;;;5062385;28;19909;-74
2022/06/01 08:45:53;;;;;;;;;;;15.40;65.80;;;;;;5070176;28;19912;-74
2022/06/01 08:48:21;;;;;;;;;;;15.60;65.80;;;;;;5071325;28;20106;-75
2022/06/01 08:50:48;;;;;;;;;;;15.90;66.60;;;;;;5057948;28;19913;-75
2022/06/01 08:53:13;;;;;;;;;;;16.10;65.60;;;;;;5070166;28;19916;-75
2022/06/01 08:55:50;;;;;;;;;;;16.30;63.40;;;;;;5064103;28;19922;-75
2022/06/01 08:58:23;;;;;;;;;;;16.40;64.70;;;;;;5071135;28;20012;-74
2022/06/01 09:01:00;;;;;;;;;;;16.30;63.80;;;;;;5067127;28;19920;-74
2022/06/01 09:03:31;;;;;;;;;;;16.00;63.90;;;;;;5070798;28;20335;-74
2022/06/01 09:06:04;;;;;;;;;;;16.00;64.50;;;;;;5064565;28;19912;-73
2022/06/01 09:08:35;;;;;;;;;;;15.80;65.30;;;;;;5068637;28;20376;-74
2022/06/01 09:11:04;;;;;;;;;;;15.70;65.10;;;;;;5084752;28;20564;-72
2022/06/01 09:14:05;;;;;;;;;;;15.80;64.70;;;;;;5071108;28;20011;-72
2022/06/01 09:16:32;;;;;;;;;;;15.80;65.20;;;;;;5026312;28;19944;-72
2022/06/01 09:18:58;;;;;;;;;;;15.70;65.10;;;;;;5060447;28;21665;-73
2022/06/01 09:24:12;;;;;;;;;;;16.00;63.80;;;;;;5062788;28;20383;-73
2022/06/01 09:26:49;;;;;;;;;;;16.20;63.40;;;;;;5068881;28;20007;-73
2022/06/01 09:29:18;;;;;;;;;;;16.30;61.40;;;;;;5068242;28;19912;-73
2022/06/01 09:31:43;;;;;;;;;;;16.30;61.60;;;;;;5063159;28;19921;-73
2022/06/01 09:34:18;;;;;;;;;;;16.10;62.90;;;;;;5069906;28;19912;-74
2022/06/01 09:36:54;;;;;;;;;;;16.10;61.70;;;;;;5060905;28;20003;-73
2022/06/01 09:39:20;;;;;;;;;;;16.00;62.50;;;;;;5066656;28;19955;-75
2022/06/01 09:41:46;;;;;;;;;;;16.10;62.80;;;;;;5067143;28;19950;-74
2022/06/01 09:44:17;;;;;;;;;;;16.10;62.00;;;;;;5069558;28;19913;-74
2022/06/01 09:46:52;;;;;;;;;;;16.00;61.60;;;;;;5066017;28;19919;-75
2022/06/01 09:49:24;;;;;;;;;;;16.00;62.90;;;;;;5069456;28;20272;-74
2022/06/01 09:51:55;;;;;;;;;;;15.80;62.00;;;;;;5069773;28;19915;-74
2022/06/01 09:54:23;;;;;;;;;;;15.70;61.80;;;;;;5058286;28;19940;-74
2022/06/01 09:56:49;;;;;;;;;;;15.60;61.90;;;;;;5060758;28;19992;-74
2022/06/01 10:07:49;;;;;;;;;;;15.90;61.40;;;;;;5068090;28;20347;-74
2022/06/01 10:10:22;;;;;;;;;;;16.00;60.90;;;;;;5062438;28;19913;-74
2022/06/01 10:12:56;;;;;;;;;;;16.20;60.90;;;;;;5055042;28;19923;-73
2022/06/01 10:15:35;;;;;;;;;;;16.30;60.20;;;;;;5060789;28;19956;-73
2022/06/01 10:18:05;;;;;;;;;;;16.50;60.00;;;;;;5051883;28;19916;-73
2022/06/01 10:20:39;;;;;;;;;;;16.60;59.00;;;;;;5065870;28;19913;-74
2022/06/01 10:23:08;;;;;;;;;;;16.50;59.60;;;;;;5057777;28;20592;-74
2022/06/01 10:25:38;;;;;;;;;;;16.60;57.60;;;;;;5058904;28;19912;-74
2022/06/01 10:28:12;;;;;;;;;;;16.60;59.20;;;;;;5048557;28;20339;-74
2022/06/01 10:30:39;;;;;;;;;;;16.80;58.70;;;;;;5058113;28;19916;-74
2022/06/01 10:33:08;;;;;;;;;;;17.00;58.30;;;;;;5065773;28;19919;-74
2022/06/01 10:35:33;;;;;;;;;;;17.00;56.70;;;;;;5066964;28;20004;-74
2022/06/01 10:38:03;;;;;;;;;;;17.10;56.80;;;;;;5064982;28;20324;-73
2022/06/01 10:40:35;;;;;;;;;;;17.20;57.00;;;;;;5066965;28;20394;-73
2022/06/01 10:43:19;;;;;;;;;;;17.10;55.70;;;;;;5062445;28;19919;-74
2022/06/01 10:45:49;;;;;;;;;;;17.10;55.90;;;;;;5055683;28;19912;-73
2022/06/01 10:48:23;;;;;;;;;;;17.20;55.70;;;;;;5056816;28;19913;-74
2022/06/01 10:50:58;;;;;;;;;;;17.30;56.00;;;;;;5059925;28;19923;-74
2022/06/01 10:53:33;;;;;;;;;;;17.50;56.00;;;;;;5062220;28;20003;-74
2022/06/01 10:55:59;;;;;;;;;;;17.60;55.50;;;;;;5057645;28;19928;-74
2022/06/01 10:58:25;;;;;;;;;;;17.60;54.50;;;;;;5063497;28;19952;-74
2022/06/01 11:00:54;;;;;;;;;;;17.60;54.30;;;;;;5053784;28;19974;-74
2022/06/01 11:03:22;;;;;;;;;;;17.40;56.20;;;;;;5065406;28;19912;-74
2022/06/01 11:05:56;;;;;;;;;;;17.10;56.40;;;;;;5066673;28;19991;-74
2022/06/01 11:08:40;;;;;;;;;;;17.10;56.00;;;;;;5062053;28;20401;-73
2022/06/01 11:11:11;;;;;;;;;;;16.80;57.70;;;;;;5053454;28;19920;-74
2022/06/01 11:13:47;;;;;;;;;;;16.60;58.00;;;;;;5067836;28;20007;-74
2022/06/01 11:16:27;;;;;;;;;;;16.60;57.10;;;;;;5051972;28;19920;-74
2022/06/01 11:18:53;;;;;;;;;;;16.60;59.20;;;;;;5066864;28;19930;-73
2022/06/01 11:21:24;;;;;;;;;;;16.60;58.50;;;;;;5045966;28;19971;-73
2022/06/01 11:24:17;;;;;;;;;;;16.60;57.90;;;;;;5056408;28;20236;-74
2022/06/01 11:27:02;;;;;;;;;;;16.80;57.90;;;;;;5077841;28;20395;-74
2022/06/01 11:29:34;;;;;;;;;;;17.00;56.30;;;;;;5066448;28;19920;-74
2022/06/01 11:32:02;;;;;;;;;;;17.10;56.40;;;;;;5063680;28;19962;-74
2022/06/01 11:34:46;;;;;;;;;;;17.30;55.10;;;;;;5066323;28;19931;-74
2022/06/01 11:37:14;;;;;;;;;;;17.40;56.60;;;;;;5055348;28;19913;-74
2022/06/01 11:39:43;;;;;;;;;;;17.50;55.00;;;;;;5058846;28;19973;-74
2022/06/01 11:42:08;;;;;;;;;;;17.50;55.20;;;;;;5067078;28;19920;-74
2022/06/01 11:44:35;;;;;;;;;;;17.50;56.10;;;;;;5062265;28;19921;-74
2022/06/01 11:47:03;;;;;;;;;;;17.50;55.50;;;;;;5066556;28;20035;-74
2022/06/01 11:49:35;;;;;;;;;;;17.60;55.50;;;;;;5057944;28;19913;-74
2022/06/01 11:52:19;;;;;;;;;;;17.70;53.80;;;;;;5070253;28;19924;-74
2022/06/01 11:54:44;;;;;;;;;;;17.70;55.50;;;;;;5061898;28;19920;-74
2022/06/01 11:57:18;;;;;;;;;;;17.80;54.00;;;;;;5054667;28;19912;-74
2022/06/01 11:59:46;;;;;;;;;;;18.00;53.90;;;;;;5054452;28;19964;-75
2022/06/01 12:02:40;;;;;;;;;;;18.10;54.60;;;;;;5058328;28;19916;-74
2022/06/01 12:05:13;;;;;;;;;;;18.30;52.70;;;;;;5057771;28;20458;-73
2022/06/01 12:07:43;;;;;;;;;;;18.30;51.60;;;;;;5059148;28;19912;-73
2022/06/01 12:10:18;;;;;;;;;;;18.20;51.40;;;;;;5064602;28;20001;-73
2022/06/01 12:12:57;;;;;;;;;;;18.10;50.60;;;;;;5066870;28;19927;-73
2022/06/01 12:15:29;;;;;;;;;;;18.00;51.90;;;;;;5070070;28;19928;-73
2022/06/01 12:18:07;;;;;;;;;;;18.00;51.70;;;;;;5058861;28;19912;-73
2022/06/01 12:20:32;;;;;;;;;;;18.00;51.60;;;;;;5070744;28;19908;-73
2022/06/01 12:28:56;;;;;;;;;;;17.60;52.10;;;;;;5070687;28;19962;-74
2022/06/01 12:31:35;;;;;;;;;;;17.60;51.80;;;;;;5066801;28;19933;-73
2022/06/01 12:34:14;;;;;;;;;;;17.50;51.70;;;;;;5065006;28;20749;-74
2022/06/01 12:36:51;;;;;;;;;;;17.50;52.90;;;;;;5069603;28;20304;-73
2022/06/01 12:39:24;;;;;;;;;;;17.50;52.70;;;;;;5069214;28;19955;-74
2022/06/01 12:41:50;;;;;;;;;;;17.50;53.80;;;;;;5067056;28;19927;-75
2022/06/01 12:44:17;;;;;;;;;;;17.50;54.50;;;;;;5061469;28;20361;-73
2022/06/01 12:46:45;;;;;;;;;;;17.60;53.30;;;;;;5065787;28;19912;-73
2022/06/01 12:49:30;;;;;;;;;;;17.80;53.60;;;;;;5064300;28;19912;-74
2022/06/01 12:52:01;;;;;;;;;;;17.90;52.70;;;;;;5071358;28;19916;-74
2022/06/01 12:54:28;;;;;;;;;;;18.00;53.90;;;;;;5076093;28;19912;-74
2022/06/01 12:56:54;;;;;;;;;;;18.10;54.80;;;;;;5072895;28;19908;-74
2022/06/01 12:59:20;;;;;;;;;;;18.20;54.50;;;;;;5071227;28;20015;-74
2022/06/01 13:01:49;;;;;;;;;;;18.40;54.20;;;;;;5059196;28;19916;-74
2022/06/01 13:04:22;;;;;;;;;;;18.60;53.60;;;;;;5057936;28;19913;-74
2022/06/01 13:06:48;;;;;;;;;;;18.80;50.50;;;;;;5060746;28;19952;-74
2022/06/01 13:09:18;;;;;;;;;;;18.80;49.70;;;;;;5068803;28;20407;-74
2022/06/01 13:11:45;;;;;;;;;;;18.50;50.60;;;;;;5066347;28;19916;-75
2022/06/01 13:14:14;;;;;;;;;;;18.10;52.50;;;;;;5060923;28;19917;-74
2022/06/01 13:16:45;;;;;;;;;;;17.70;53.80;;;;;;5059877;28;19912;-74
2022/06/01 13:19:19;;;;;;;;;;;17.30;54.80;;;;;;5060809;28;19989;-75
2022/06/01 13:22:05;;;;;;;;;;;16.90;56.30;;;;;;5068423;28;19932;-75
2022/06/01 13:24:34;;;;;;;;;;;16.60;56.60;;;;;;5073450;28;19913;-75
2022/06/01 13:27:01;;;;;;;;;;;16.40;58.60;;;;;;5063037;28;19917;-75
2022/06/01 13:29:32;;;;;;;;;;;16.10;60.30;;;;;;5073219;28;20296;-75
2022/06/01 13:32:02;;;;;;;;;;;16.00;59.50;;;;;;5070621;28;19916;-75
2022/06/01 13:34:47;;;;;;;;;;;15.80;60.10;;;;;;5056257;28;19999;-75
2022/06/01 13:37:15;;;;;;;;;;;15.60;62.30;;;;;;5069083;28;20054;-74
2022/06/01 13:39:47;;;;;;;;;;;15.60;61.50;;;;;;5058476;28;19916;-74
2022/06/01 13:42:21;;;;;;;;;;;15.70;61.30;;;;;;5053686;28;20074;-74
2022/06/01 13:44:54;;;;;;;;;;;15.90;60.40;;;;;;5053669;28;20007;-74
2022/06/01 13:47:25;;;;;;;;;;;15.90;61.20;;;;;;5057686;28;19916;-73
2022/06/01 13:49:58;;;;;;;;;;;15.80;60.90;;;;;;5068135;28;19920;-73
2022/06/01 13:52:25;;;;;;;;;;;15.70;61.40;;;;;;5071133;28;19915;-73
2022/06/01 13:55:09;;;;;;;;;;;15.70;60.90;;;;;;5063930;28;19912;-75
2022/06/01 13:57:45;;;;;;;;;;;15.70;61.40;;;;;;5052219;28;19909;-75
2022/06/01 14:00:18;;;;;;;;;;;15.80;62.20;;;;;;5064960;28;19917;-75
2022/06/01 14:02:46;;;;;;;;;;;15.70;60.40;;;;;;5070865;28;19955;-74
2022/06/01 14:05:16;;;;;;;;;;;15.60;60.90;;;;;;5065599;28;19912;-81
2022/06/01 14:07:48;;;;;;;;;;;15.50;61.50;;;;;;5064657;28;19935;-81
2022/06/01 14:10:13;;;;;;;;;;;15.20;65.60;;;;;;5068486;28;20341;-80
2022/06/01 14:12:40;;;;;;;;;;;15.10;66.10;;;;;;5054963;28;19931;-78
2022/06/01 14:15:06;;;;;;;;;;;15.00;67.30;;;;;;5071927;28;20397;-77
2022/06/01 14:17:31;;;;;;;;;;;15.10;67.40;;;;;;5075109;28;19932;-78
2022/06/01 14:19:57;;;;;;;;;;;15.10;68.70;;;;;;5068152;28;19923;-77
2022/06/01 14:22:23;;;;;;;;;;;15.10;69.80;;;;;;5060110;28;19916;-77
2022/06/01 14:30:16;;;;;;;;;;;15.20;69.40;;;;;;5055448;28;20384;-78
2022/06/01 14:32:45;;;;;;;;;;;15.10;69.10;;;;;;5064464;28;19908;-78
2022/06/01 14:35:11;;;;;;;;;;;15.10;69.40;;;;;;5084731;28;19934;-77
2022/06/01 14:37:37;;;;;;;;;;;15.00;69.60;;;;;;5071164;28;19908;-78
2022/06/01 14:40:03;;;;;;;;;;;15.00;70.30;;;;;;5059052;28;20381;-78
2022/06/01 14:42:29;;;;;;;;;;;15.10;71.60;;;;;;5076576;28;19916;-78
2022/06/01 14:44:55;;;;;;;;;;;15.20;70.30;;;;;;5076150;28;19913;-78
2022/06/01 14:47:21;;;;;;;;;;;15.40;68.10;;;;;;5078522;28;20046;-79
2022/06/01 14:49:50;;;;;;;;;;;15.40;65.70;;;;;;5078497;28;19909;-79
2022/06/01 14:52:15;;;;;;;;;;;15.60;66.90;;;;;;5075619;28;20007;-79
2022/06/01 14:54:41;;;;;;;;;;;15.70;66.50;;;;;;5066487;28;19917;-78
2022/06/01 14:57:09;;;;;;;;;;;15.80;66.20;;;;;;5070137;28;19939;-77
2022/06/01 14:59:36;;;;;;;;;;;15.80;66.30;;;;;;5071561;28;19947;-78